sensor_id;sensor_type;location;lat;lon;timestamp;P1;durP1;ratioP1;P2;durP2;ratioP2
462;SDS011;218;51.902;9.542;2022-10-17T00:01:52;4.10;;;3.77;;
462;SDS011;218;51.902;9.542;2022-10-17T00:04:20;4.03;;;3.27;;
462;SDS011;218;51.902;9.542;2022-10-17T00:06:47;3.80;;;3.50;;
462;SDS011;218;51.902;9.542;2022-10-17T00:09:15;3.40;;;3.10;;
462;SDS011;218;51.902;9.542;2022-10-17T00:11:42;4.20;;;3.23;;
462;SDS011;218;51.902;9.542;2022-10-17T00:14:10;3.27;;;2.90;;
462;SDS011;218;51.902;9.542;2022-10-17T00:16:37;2.83;;;2.63;;
462;SDS011;218;51.902;9.542;2022-10-17T00:19:05;3.63;;;3.00;;
462;SDS011;218;51.902;9.542;2022-10-17T00:21:32;4.47;;;3.40;;
462;SDS011;218;51.902;9.542;2022-10-17T00:23:59;3.80;;;3.60;;
462;SDS011;218;51.902;9.542;2022-10-17T00:26:28;3.83;;;3.63;;
462;SDS011;218;51.902;9.542;2022-10-17T00:28:55;4.00;;;3.70;;
462;SDS011;218;51.902;9.542;2022-10-17T00:31:25;3.87;;;3.67;;
462;SDS011;218;51.902;9.542;2022-10-17T00:33:53;3.30;;;3.10;;
462;SDS011;218;51.902;9.542;2022-10-17T00:36:21;3.53;;;3.33;;
462;SDS011;218;51.902;9.542;2022-10-17T00:38:50;3.63;;;3.43;;
462;SDS011;218;51.902;9.542;2022-10-17T00:41:22;3.60;;;3.40;;
462;SDS011;218;51.902;9.542;2022-10-17T00:43:51;3.93;;;3.63;;
462;SDS011;218;51.902;9.542;2022-10-17T00:46:21;4.10;;;3.80;;
462;SDS011;218;51.902;9.542;2022-10-17T00:48:51;3.53;;;3.23;;
462;SDS011;218;51.902;9.542;2022-10-17T00:51:21;4.30;;;3.90;;
462;SDS011;218;51.902;9.542;2022-10-17T00:53:54;4.23;;;3.83;;
462;SDS011;218;51.902;9.542;2022-10-17T00:56:21;4.33;;;3.63;;
462;SDS011;218;51.902;9.542;2022-10-17T00:58:48;4.23;;;4.03;;
462;SDS011;218;51.902;9.542;2022-10-17T01:01:15;4.23;;;3.93;;
462;SDS011;218;51.902;9.542;2022-10-17T01:03:42;5.07;;;4.50;;
462;SDS011;218;51.902;9.542;2022-10-17T01:06:11;4.73;;;3.83;;
462;SDS011;218;51.902;9.542;2022-10-17T01:08:38;4.83;;;4.00;;
462;SDS011;218;51.902;9.542;2022-10-17T01:11:08;7.60;;;4.13;;
462;SDS011;218;51.902;9.542;2022-10-17T01:13:45;3.50;;;3.30;;
462;SDS011;218;51.902;9.542;2022-10-17T01:16:17;5.77;;;4.10;;
462;SDS011;218;51.902;9.542;2022-10-17T01:18:54;4.27;;;3.90;;
462;SDS011;218;51.902;9.542;2022-10-17T01:21:29;3.83;;;3.50;;
462;SDS011;218;51.902;9.542;2022-10-17T01:27:24;7.47;;;3.67;;
462;SDS011;218;51.902;9.542;2022-10-17T01:30:14;5.97;;;3.70;;
462;SDS011;218;51.902;9.542;2022-10-17T01:33:04;4.93;;;3.73;;
462;SDS011;218;51.902;9.542;2022-10-17T01:35:36;4.80;;;3.97;;
462;SDS011;218;51.902;9.542;2022-10-17T01:38:07;4.87;;;4.27;;
462;SDS011;218;51.902;9.542;2022-10-17T01:40:41;4.70;;;3.43;;
462;SDS011;218;51.902;9.542;2022-10-17T01:43:15;5.20;;;3.83;;
462;SDS011;218;51.902;9.542;2022-10-17T01:45:52;6.00;;;3.73;;
462;SDS011;218;51.902;9.542;2022-10-17T01:48:26;6.67;;;3.87;;
462;SDS011;218;51.902;9.542;2022-10-17T01:51:05;6.33;;;4.07;;
462;SDS011;218;51.902;9.542;2022-10-17T01:53:35;5.63;;;3.83;;
462;SDS011;218;51.902;9.542;2022-10-17T01:56:06;7.00;;;4.63;;
462;SDS011;218;51.902;9.542;2022-10-17T01:58:35;6.30;;;4.40;;
462;SDS011;218;51.902;9.542;2022-10-17T02:01:06;4.33;;;4.10;;
462;SDS011;218;51.902;9.542;2022-10-17T02:03:39;3.63;;;3.43;;
462;SDS011;218;51.902;9.542;2022-10-17T02:06:08;3.97;;;3.67;;
462;SDS011;218;51.902;9.542;2022-10-17T02:08:39;3.90;;;3.70;;
462;SDS011;218;51.902;9.542;2022-10-17T02:11:08;5.77;;;3.70;;
462;SDS011;218;51.902;9.542;2022-10-17T02:13:41;4.17;;;3.77;;
462;SDS011;218;51.902;9.542;2022-10-17T02:16:19;4.23;;;3.77;;
462;SDS011;218;51.902;9.542;2022-10-17T02:19:01;4.57;;;4.17;;
462;SDS011;218;51.902;9.542;2022-10-17T02:21:37;4.07;;;3.77;;
462;SDS011;218;51.902;9.542;2022-10-17T02:24:12;4.30;;;3.93;;
462;SDS011;218;51.902;9.542;2022-10-17T02:26:46;4.80;;;4.40;;
462;SDS011;218;51.902;9.542;2022-10-17T02:29:16;4.23;;;3.93;;
462;SDS011;218;51.902;9.542;2022-10-17T02:31:45;4.20;;;4.00;;
462;SDS011;218;51.902;9.542;2022-10-17T02:34:17;4.53;;;3.90;;
462;SDS011;218;51.902;9.542;2022-10-17T02:36:48;4.23;;;3.97;;
462;SDS011;218;51.902;9.542;2022-10-17T02:39:16;4.10;;;3.80;;
462;SDS011;218;51.902;9.542;2022-10-17T02:41:45;4.00;;;3.80;;
462;SDS011;218;51.902;9.542;2022-10-17T02:44:13;4.00;;;3.70;;
462;SDS011;218;51.902;9.542;2022-10-17T02:46:40;4.50;;;4.20;;
462;SDS011;218;51.902;9.542;2022-10-17T02:49:11;4.37;;;4.00;;
462;SDS011;218;51.902;9.542;2022-10-17T02:51:44;5.10;;;4.80;;
462;SDS011;218;51.902;9.542;2022-10-17T02:54:16;4.27;;;4.07;;
462;SDS011;218;51.902;9.542;2022-10-17T02:56:49;3.77;;;3.57;;
462;SDS011;218;51.902;9.542;2022-10-17T02:59:20;4.90;;;4.00;;
462;SDS011;218;51.902;9.542;2022-10-17T03:01:50;4.73;;;4.33;;
462;SDS011;218;51.902;9.542;2022-10-17T03:04:18;4.00;;;3.80;;
462;SDS011;218;51.902;9.542;2022-10-17T03:06:46;4.07;;;3.87;;
462;SDS011;218;51.902;9.542;2022-10-17T03:09:14;4.50;;;4.30;;
462;SDS011;218;51.902;9.542;2022-10-17T03:11:41;5.20;;;4.80;;
462;SDS011;218;51.902;9.542;2022-10-17T03:14:08;4.60;;;4.20;;
462;SDS011;218;51.902;9.542;2022-10-17T03:16:35;4.70;;;4.30;;
462;SDS011;218;51.902;9.542;2022-10-17T03:19:02;4.83;;;4.43;;
462;SDS011;218;51.902;9.542;2022-10-17T03:21:29;8.50;;;4.90;;
462;SDS011;218;51.902;9.542;2022-10-17T03:23:58;5.00;;;4.50;;
462;SDS011;218;51.902;9.542;2022-10-17T03:26:25;4.40;;;4.07;;
462;SDS011;218;51.902;9.542;2022-10-17T03:28:53;4.40;;;4.10;;
462;SDS011;218;51.902;9.542;2022-10-17T03:31:21;5.57;;;4.10;;
462;SDS011;218;51.902;9.542;2022-10-17T03:33:48;4.40;;;3.87;;
462;SDS011;218;51.902;9.542;2022-10-17T03:36:16;4.90;;;4.60;;
462;SDS011;218;51.902;9.542;2022-10-17T03:38:44;4.53;;;4.13;;
462;SDS011;218;51.902;9.542;2022-10-17T03:41:12;4.47;;;4.10;;
462;SDS011;218;51.902;9.542;2022-10-17T03:43:40;4.67;;;4.27;;
462;SDS011;218;51.902;9.542;2022-10-17T03:46:07;4.70;;;4.30;;
462;SDS011;218;51.902;9.542;2022-10-17T03:48:34;5.70;;;4.13;;
462;SDS011;218;51.902;9.542;2022-10-17T03:51:02;5.70;;;4.30;;
462;SDS011;218;51.902;9.542;2022-10-17T03:53:30;4.53;;;4.13;;
462;SDS011;218;51.902;9.542;2022-10-17T03:56:07;4.00;;;3.70;;
462;SDS011;218;51.902;9.542;2022-10-17T03:58:36;4.20;;;3.90;;
462;SDS011;218;51.902;9.542;2022-10-17T04:01:04;5.03;;;4.83;;
462;SDS011;218;51.902;9.542;2022-10-17T04:03:32;4.80;;;4.50;;
462;SDS011;218;51.902;9.542;2022-10-17T04:05:59;4.50;;;4.23;;
462;SDS011;218;51.902;9.542;2022-10-17T04:08:26;4.83;;;4.53;;
462;SDS011;218;51.902;9.542;2022-10-17T04:10:56;4.07;;;3.87;;
462;SDS011;218;51.902;9.542;2022-10-17T04:13:24;4.60;;;4.30;;
462;SDS011;218;51.902;9.542;2022-10-17T04:15:56;5.27;;;4.87;;
462;SDS011;218;51.902;9.542;2022-10-17T04:18:24;4.30;;;4.00;;
462;SDS011;218;51.902;9.542;2022-10-17T04:20:51;4.63;;;4.33;;
462;SDS011;218;51.902;9.542;2022-10-17T04:23:18;5.03;;;4.70;;
462;SDS011;218;51.902;9.542;2022-10-17T04:25:45;4.30;;;4.10;;
462;SDS011;218;51.902;9.542;2022-10-17T04:28:14;4.70;;;4.40;;
462;SDS011;218;51.902;9.542;2022-10-17T04:30:41;4.53;;;4.10;;
462;SDS011;218;51.902;9.542;2022-10-17T04:33:10;4.23;;;3.93;;
462;SDS011;218;51.902;9.542;2022-10-17T04:35:37;5.23;;;4.87;;
462;SDS011;218;51.902;9.542;2022-10-17T04:38:04;4.50;;;4.20;;
462;SDS011;218;51.902;9.542;2022-10-17T04:40:31;4.63;;;4.27;;
462;SDS011;218;51.902;9.542;2022-10-17T04:42:58;4.77;;;4.20;;
462;SDS011;218;51.902;9.542;2022-10-17T04:45:26;4.27;;;4.07;;
462;SDS011;218;51.902;9.542;2022-10-17T04:47:53;4.17;;;3.73;;
462;SDS011;218;51.902;9.542;2022-10-17T04:50:21;4.33;;;3.93;;
462;SDS011;218;51.902;9.542;2022-10-17T04:52:49;5.00;;;4.30;;
462;SDS011;218;51.902;9.542;2022-10-17T04:55:16;4.60;;;4.30;;
462;SDS011;218;51.902;9.542;2022-10-17T04:57:43;4.10;;;3.90;;
462;SDS011;218;51.902;9.542;2022-10-17T05:00:10;5.73;;;4.10;;
462;SDS011;218;51.902;9.542;2022-10-17T05:02:37;4.27;;;4.07;;
462;SDS011;218;51.902;9.542;2022-10-17T05:05:05;5.30;;;4.70;;
462;SDS011;218;51.902;9.542;2022-10-17T05:07:34;5.10;;;4.80;;
462;SDS011;218;51.902;9.542;2022-10-17T05:10:01;5.00;;;4.70;;
462;SDS011;218;51.902;9.542;2022-10-17T05:12:28;5.47;;;5.07;;
462;SDS011;218;51.902;9.542;2022-10-17T05:14:56;5.63;;;5.33;;
462;SDS011;218;51.902;9.542;2022-10-17T05:17:23;5.10;;;4.80;;
462;SDS011;218;51.902;9.542;2022-10-17T05:19:50;5.87;;;5.57;;
462;SDS011;218;51.902;9.542;2022-10-17T05:22:17;5.30;;;4.90;;
462;SDS011;218;51.902;9.542;2022-10-17T05:24:45;5.17;;;4.87;;
462;SDS011;218;51.902;9.542;2022-10-17T05:27:13;6.83;;;6.30;;
462;SDS011;218;51.902;9.542;2022-10-17T05:29:40;5.70;;;5.40;;
462;SDS011;218;51.902;9.542;2022-10-17T05:32:07;6.60;;;6.10;;
462;SDS011;218;51.902;9.542;2022-10-17T05:34:34;6.13;;;5.50;;
462;SDS011;218;51.902;9.542;2022-10-17T05:37:01;5.73;;;5.33;;
462;SDS011;218;51.902;9.542;2022-10-17T05:39:28;5.60;;;5.20;;
462;SDS011;218;51.902;9.542;2022-10-17T05:41:57;5.13;;;4.83;;
462;SDS011;218;51.902;9.542;2022-10-17T05:44:24;6.50;;;6.07;;
462;SDS011;218;51.902;9.542;2022-10-17T05:46:51;11.03;;;10.03;;
462;SDS011;218;51.902;9.542;2022-10-17T05:49:18;10.67;;;9.80;;
462;SDS011;218;51.902;9.542;2022-10-17T05:51:45;9.77;;;8.87;;
462;SDS011;218;51.902;9.542;2022-10-17T05:54:13;8.73;;;8.03;;
462;SDS011;218;51.902;9.542;2022-10-17T05:56:40;9.30;;;7.20;;
462;SDS011;218;51.902;9.542;2022-10-17T05:59:08;7.20;;;6.60;;
462;SDS011;218;51.902;9.542;2022-10-17T06:01:35;9.80;;;8.20;;
462;SDS011;218;51.902;9.542;2022-10-17T06:04:03;8.83;;;7.30;;
462;SDS011;218;51.902;9.542;2022-10-17T06:06:30;8.23;;;7.40;;
462;SDS011;218;51.902;9.542;2022-10-17T06:08:57;9.60;;;8.70;;
462;SDS011;218;51.902;9.542;2022-10-17T06:11:24;9.63;;;8.83;;
462;SDS011;218;51.902;9.542;2022-10-17T06:13:52;9.20;;;8.30;;
462;SDS011;218;51.902;9.542;2022-10-17T06:16:20;8.00;;;7.40;;
462;SDS011;218;51.902;9.542;2022-10-17T06:18:47;8.70;;;7.83;;
462;SDS011;218;51.902;9.542;2022-10-17T06:21:16;10.40;;;9.50;;
462;SDS011;218;51.902;9.542;2022-10-17T06:23:46;8.47;;;7.77;;
462;SDS011;218;51.902;9.542;2022-10-17T06:26:14;10.33;;;8.27;;
462;SDS011;218;51.902;9.542;2022-10-17T06:28:41;11.23;;;10.30;;
462;SDS011;218;51.902;9.542;2022-10-17T06:31:09;10.67;;;9.87;;
462;SDS011;218;51.902;9.542;2022-10-17T06:33:39;15.57;;;14.07;;
462;SDS011;218;51.902;9.542;2022-10-17T06:36:07;17.07;;;15.37;;
462;SDS011;218;51.902;9.542;2022-10-17T06:38:37;17.40;;;15.90;;
462;SDS011;218;51.902;9.542;2022-10-17T06:41:05;16.03;;;14.53;;
462;SDS011;218;51.902;9.542;2022-10-17T06:43:32;14.70;;;13.30;;
462;SDS011;218;51.902;9.542;2022-10-17T06:46:00;14.33;;;12.83;;
462;SDS011;218;51.902;9.542;2022-10-17T06:48:26;11.37;;;10.27;;
462;SDS011;218;51.902;9.542;2022-10-17T06:50:58;8.17;;;7.50;;
462;SDS011;218;51.902;9.542;2022-10-17T06:53:26;8.90;;;8.20;;
462;SDS011;218;51.902;9.542;2022-10-17T06:55:54;8.33;;;7.60;;
462;SDS011;218;51.902;9.542;2022-10-17T06:58:25;8.03;;;7.30;;
462;SDS011;218;51.902;9.542;2022-10-17T07:00:56;7.47;;;6.77;;
462;SDS011;218;51.902;9.542;2022-10-17T07:03:24;5.93;;;5.53;;
462;SDS011;218;51.902;9.542;2022-10-17T07:05:51;6.97;;;6.47;;
462;SDS011;218;51.902;9.542;2022-10-17T07:08:20;6.50;;;6.10;;
462;SDS011;218;51.902;9.542;2022-10-17T07:10:47;7.00;;;6.50;;
462;SDS011;218;51.902;9.542;2022-10-17T07:13:15;6.13;;;5.73;;
462;SDS011;218;51.902;9.542;2022-10-17T07:15:42;6.13;;;5.73;;
462;SDS011;218;51.902;9.542;2022-10-17T07:18:09;7.50;;;6.90;;
462;SDS011;218;51.902;9.542;2022-10-17T07:20:36;6.53;;;6.00;;
462;SDS011;218;51.902;9.542;2022-10-17T07:23:04;6.87;;;6.23;;
462;SDS011;218;51.902;9.542;2022-10-17T07:25:33;6.57;;;6.00;;
462;SDS011;218;51.902;9.542;2022-10-17T07:28:00;7.50;;;6.70;;
462;SDS011;218;51.902;9.542;2022-10-17T07:30:28;8.33;;;7.67;;
462;SDS011;218;51.902;9.542;2022-10-17T07:32:55;9.27;;;7.77;;
462;SDS011;218;51.902;9.542;2022-10-17T07:35:22;8.90;;;8.10;;
462;SDS011;218;51.902;9.542;2022-10-17T07:37:49;9.30;;;8.50;;
462;SDS011;218;51.902;9.542;2022-10-17T07:40:16;8.57;;;7.97;;
462;SDS011;218;51.902;9.542;2022-10-17T07:42:45;7.87;;;7.30;;
462;SDS011;218;51.902;9.542;2022-10-17T07:45:12;8.93;;;7.70;;
462;SDS011;218;51.902;9.542;2022-10-17T07:47:40;9.13;;;7.90;;
462;SDS011;218;51.902;9.542;2022-10-17T07:50:07;8.20;;;7.40;;
462;SDS011;218;51.902;9.542;2022-10-17T07:52:34;7.03;;;6.53;;
462;SDS011;218;51.902;9.542;2022-10-17T07:55:01;6.60;;;6.00;;
462;SDS011;218;51.902;9.542;2022-10-17T07:57:28;8.10;;;7.40;;
462;SDS011;218;51.902;9.542;2022-10-17T07:59:57;6.83;;;6.30;;
462;SDS011;218;51.902;9.542;2022-10-17T08:02:25;7.10;;;6.60;;
462;SDS011;218;51.902;9.542;2022-10-17T08:04:52;5.83;;;5.43;;
462;SDS011;218;51.902;9.542;2022-10-17T08:07:19;7.30;;;5.50;;
462;SDS011;218;51.902;9.542;2022-10-17T08:09:46;6.30;;;5.70;;
462;SDS011;218;51.902;9.542;2022-10-17T08:12:14;6.20;;;5.57;;
462;SDS011;218;51.902;9.542;2022-10-17T08:14:41;6.00;;;5.50;;
462;SDS011;218;51.902;9.542;2022-10-17T08:17:10;6.37;;;5.77;;
462;SDS011;218;51.902;9.542;2022-10-17T08:19:37;7.17;;;6.57;;
462;SDS011;218;51.902;9.542;2022-10-17T08:22:05;6.50;;;6.00;;
462;SDS011;218;51.902;9.542;2022-10-17T08:24:32;6.40;;;5.53;;
462;SDS011;218;51.902;9.542;2022-10-17T08:26:59;6.47;;;5.97;;
462;SDS011;218;51.902;9.542;2022-10-17T08:29:28;7.80;;;6.40;;
462;SDS011;218;51.902;9.542;2022-10-17T08:31:56;6.43;;;5.77;;
462;SDS011;218;51.902;9.542;2022-10-17T08:34:25;7.87;;;5.60;;
462;SDS011;218;51.902;9.542;2022-10-17T08:36:52;5.83;;;5.33;;
462;SDS011;218;51.902;9.542;2022-10-17T08:39:19;5.43;;;4.93;;
462;SDS011;218;51.902;9.542;2022-10-17T08:41:52;8.33;;;6.37;;
462;SDS011;218;51.902;9.542;2022-10-17T08:44:30;6.13;;;5.47;;
462;SDS011;218;51.902;9.542;2022-10-17T08:47:05;5.67;;;4.90;;
462;SDS011;218;51.902;9.542;2022-10-17T08:49:41;5.10;;;4.70;;
462;SDS011;218;51.902;9.542;2022-10-17T08:52:14;5.97;;;5.47;;
462;SDS011;218;51.902;9.542;2022-10-17T08:54:47;5.20;;;4.90;;
462;SDS011;218;51.902;9.542;2022-10-17T08:57:15;6.10;;;5.47;;
462;SDS011;218;51.902;9.542;2022-10-17T08:59:43;6.57;;;5.20;;
462;SDS011;218;51.902;9.542;2022-10-17T09:02:20;5.30;;;5.00;;
462;SDS011;218;51.902;9.542;2022-10-17T09:05:06;6.10;;;5.53;;
462;SDS011;218;51.902;9.542;2022-10-17T09:07:48;6.00;;;5.40;;
462;SDS011;218;51.902;9.542;2022-10-17T09:10:25;5.43;;;5.03;;
462;SDS011;218;51.902;9.542;2022-10-17T09:13:04;5.60;;;5.10;;
462;SDS011;218;51.902;9.542;2022-10-17T09:15:43;9.10;;;5.40;;
462;SDS011;218;51.902;9.542;2022-10-17T09:18:20;5.87;;;5.40;;
462;SDS011;218;51.902;9.542;2022-10-17T09:20:52;6.17;;;5.60;;
462;SDS011;218;51.902;9.542;2022-10-17T09:23:23;8.90;;;6.67;;
462;SDS011;218;51.902;9.542;2022-10-17T09:25:52;6.83;;;6.27;;
462;SDS011;218;51.902;9.542;2022-10-17T09:28:20;6.67;;;6.03;;
462;SDS011;218;51.902;9.542;2022-10-17T09:30:53;6.07;;;5.43;;
462;SDS011;218;51.902;9.542;2022-10-17T09:33:24;5.60;;;5.20;;
462;SDS011;218;51.902;9.542;2022-10-17T09:35:54;5.50;;;5.07;;
462;SDS011;218;51.902;9.542;2022-10-17T09:40:53;5.23;;;4.60;;
462;SDS011;218;51.902;9.542;2022-10-17T09:43:24;5.00;;;4.63;;
462;SDS011;218;51.902;9.542;2022-10-17T09:45:55;6.27;;;4.90;;
462;SDS011;218;51.902;9.542;2022-10-17T09:48:32;5.87;;;5.37;;
462;SDS011;218;51.902;9.542;2022-10-17T09:51:05;5.67;;;5.17;;
462;SDS011;218;51.902;9.542;2022-10-17T09:53:35;4.70;;;4.40;;
462;SDS011;218;51.902;9.542;2022-10-17T09:56:08;4.60;;;4.30;;
462;SDS011;218;51.902;9.542;2022-10-17T09:58:41;6.40;;;5.13;;
462;SDS011;218;51.902;9.542;2022-10-17T10:01:17;6.80;;;4.30;;
462;SDS011;218;51.902;9.542;2022-10-17T10:03:48;6.57;;;5.13;;
462;SDS011;218;51.902;9.542;2022-10-17T10:06:39;13.77;;;5.67;;
462;SDS011;218;51.902;9.542;2022-10-17T10:09:19;4.37;;;4.07;;
462;SDS011;218;51.902;9.542;2022-10-17T10:11:50;6.43;;;5.20;;
462;SDS011;218;51.902;9.542;2022-10-17T10:14:20;5.47;;;5.00;;
462;SDS011;218;51.902;9.542;2022-10-17T10:16:49;5.07;;;4.67;;
462;SDS011;218;51.902;9.542;2022-10-17T10:19:26;4.67;;;4.20;;
462;SDS011;218;51.902;9.542;2022-10-17T10:21:58;9.13;;;4.70;;
462;SDS011;218;51.902;9.542;2022-10-17T10:24:26;5.00;;;4.30;;
462;SDS011;218;51.902;9.542;2022-10-17T10:26:54;5.30;;;4.80;;
462;SDS011;218;51.902;9.542;2022-10-17T10:29:25;4.17;;;3.80;;
462;SDS011;218;51.902;9.542;2022-10-17T10:31:55;5.10;;;4.60;;
462;SDS011;218;51.902;9.542;2022-10-17T10:34:32;5.07;;;4.70;;
462;SDS011;218;51.902;9.542;2022-10-17T10:37:05;4.30;;;3.90;;
462;SDS011;218;51.902;9.542;2022-10-17T10:39:45;4.00;;;3.60;;
462;SDS011;218;51.902;9.542;2022-10-17T10:42:25;4.60;;;4.10;;
462;SDS011;218;51.902;9.542;2022-10-17T10:44:56;4.97;;;4.53;;
462;SDS011;218;51.902;9.542;2022-10-17T10:47:27;4.40;;;4.00;;
462;SDS011;218;51.902;9.542;2022-10-17T10:50:06;4.43;;;4.10;;
462;SDS011;218;51.902;9.542;2022-10-17T10:52:52;4.50;;;4.00;;
462;SDS011;218;51.902;9.542;2022-10-17T10:55:27;5.93;;;4.90;;
462;SDS011;218;51.902;9.542;2022-10-17T10:57:59;4.30;;;3.90;;
462;SDS011;218;51.902;9.542;2022-10-17T11:00:30;4.40;;;4.10;;
462;SDS011;218;51.902;9.542;2022-10-17T11:03:03;4.50;;;4.10;;
462;SDS011;218;51.902;9.542;2022-10-17T11:05:39;3.73;;;3.43;;
462;SDS011;218;51.902;9.542;2022-10-17T11:08:14;5.30;;;4.30;;
462;SDS011;218;51.902;9.542;2022-10-17T11:10:55;3.90;;;3.57;;
462;SDS011;218;51.902;9.542;2022-10-17T11:13:30;3.67;;;3.47;;
462;SDS011;218;51.902;9.542;2022-10-17T11:16:09;3.97;;;3.70;;
462;SDS011;218;51.902;9.542;2022-10-17T11:18:49;4.50;;;4.20;;
462;SDS011;218;51.902;9.542;2022-10-17T11:21:23;4.10;;;3.80;;
462;SDS011;218;51.902;9.542;2022-10-17T11:24:02;4.00;;;3.60;;
462;SDS011;218;51.902;9.542;2022-10-17T11:26:37;4.00;;;3.60;;
462;SDS011;218;51.902;9.542;2022-10-17T11:29:10;4.17;;;3.57;;
462;SDS011;218;51.902;9.542;2022-10-17T11:31:40;4.33;;;4.03;;
462;SDS011;218;51.902;9.542;2022-10-17T11:34:14;4.60;;;4.23;;
462;SDS011;218;51.902;9.542;2022-10-17T11:36:47;5.33;;;4.40;;
462;SDS011;218;51.902;9.542;2022-10-17T11:39:21;4.50;;;4.10;;
462;SDS011;218;51.902;9.542;2022-10-17T11:41:55;4.57;;;4.00;;
462;SDS011;218;51.902;9.542;2022-10-17T11:44:28;5.10;;;4.07;;
462;SDS011;218;51.902;9.542;2022-10-17T11:47:00;4.60;;;4.20;;
462;SDS011;218;51.902;9.542;2022-10-17T11:49:33;4.47;;;4.10;;
462;SDS011;218;51.902;9.542;2022-10-17T11:52:06;7.70;;;4.50;;
462;SDS011;218;51.902;9.542;2022-10-17T11:54:47;5.70;;;3.87;;
462;SDS011;218;51.902;9.542;2022-10-17T11:57:25;3.73;;;3.40;;
462;SDS011;218;51.902;9.542;2022-10-17T12:00:20;4.03;;;3.60;;
462;SDS011;218;51.902;9.542;2022-10-17T12:02:53;4.57;;;3.67;;
462;SDS011;218;51.902;9.542;2022-10-17T12:05:32;4.30;;;3.40;;
462;SDS011;218;51.902;9.542;2022-10-17T12:08:07;4.37;;;3.33;;
462;SDS011;218;51.902;9.542;2022-10-17T12:10:41;5.77;;;4.13;;
462;SDS011;218;51.902;9.542;2022-10-17T12:16:35;4.07;;;3.60;;
462;SDS011;218;51.902;9.542;2022-10-17T12:19:15;4.70;;;3.50;;
462;SDS011;218;51.902;9.542;2022-10-17T12:22:01;5.37;;;4.10;;
462;SDS011;218;51.902;9.542;2022-10-17T12:24:36;6.73;;;3.50;;
462;SDS011;218;51.902;9.542;2022-10-17T12:32:57;4.80;;;4.17;;
462;SDS011;218;51.902;9.542;2022-10-17T12:35:32;4.20;;;3.77;;
462;SDS011;218;51.902;9.542;2022-10-17T12:41:00;7.97;;;4.20;;
462;SDS011;218;51.902;9.542;2022-10-17T12:43:36;3.97;;;3.60;;
462;SDS011;218;51.902;9.542;2022-10-17T12:49:40;5.67;;;4.00;;
462;SDS011;218;51.902;9.542;2022-10-17T12:52:19;4.70;;;3.90;;
462;SDS011;218;51.902;9.542;2022-10-17T12:55:14;4.30;;;4.00;;
462;SDS011;218;51.902;9.542;2022-10-17T12:57:48;4.20;;;3.80;;
462;SDS011;218;51.902;9.542;2022-10-17T13:00:21;5.17;;;3.97;;
462;SDS011;218;51.902;9.542;2022-10-17T13:02:55;4.57;;;4.13;;
462;SDS011;218;51.902;9.542;2022-10-17T13:05:30;4.10;;;3.70;;
462;SDS011;218;51.902;9.542;2022-10-17T13:08:03;4.93;;;4.10;;
462;SDS011;218;51.902;9.542;2022-10-17T13:10:34;7.10;;;3.20;;
462;SDS011;218;51.902;9.542;2022-10-17T13:13:06;4.03;;;3.73;;
462;SDS011;218;51.902;9.542;2022-10-17T13:15:45;4.17;;;3.43;;
462;SDS011;218;51.902;9.542;2022-10-17T13:18:18;5.47;;;4.23;;
462;SDS011;218;51.902;9.542;2022-10-17T13:20:53;4.07;;;3.77;;
462;SDS011;218;51.902;9.542;2022-10-17T13:23:22;7.17;;;4.13;;
462;SDS011;218;51.902;9.542;2022-10-17T13:26:01;5.13;;;4.20;;
462;SDS011;218;51.902;9.542;2022-10-17T13:28:32;5.20;;;3.70;;
462;SDS011;218;51.902;9.542;2022-10-17T13:31:02;7.50;;;3.97;;
462;SDS011;218;51.902;9.542;2022-10-17T13:33:31;4.27;;;3.97;;
462;SDS011;218;51.902;9.542;2022-10-17T13:36:01;6.20;;;3.57;;
462;SDS011;218;51.902;9.542;2022-10-17T13:38:30;4.77;;;3.13;;
462;SDS011;218;51.902;9.542;2022-10-17T13:40:59;3.83;;;3.57;;
462;SDS011;218;51.902;9.542;2022-10-17T13:43:28;4.57;;;3.90;;
462;SDS011;218;51.902;9.542;2022-10-17T13:45:59;5.43;;;4.10;;
462;SDS011;218;51.902;9.542;2022-10-17T13:48:30;7.57;;;3.70;;
462;SDS011;218;51.902;9.542;2022-10-17T13:51:01;4.60;;;3.63;;
462;SDS011;218;51.902;9.542;2022-10-17T13:53:31;6.20;;;4.30;;
462;SDS011;218;51.902;9.542;2022-10-17T13:56:00;4.87;;;3.63;;
462;SDS011;218;51.902;9.542;2022-10-17T13:58:30;3.87;;;3.53;;
462;SDS011;218;51.902;9.542;2022-10-17T14:01:06;4.77;;;4.00;;
462;SDS011;218;51.902;9.542;2022-10-17T14:03:34;8.00;;;4.43;;
462;SDS011;218;51.902;9.542;2022-10-17T14:06:10;6.80;;;4.13;;
462;SDS011;218;51.902;9.542;2022-10-17T14:08:45;4.10;;;3.70;;
462;SDS011;218;51.902;9.542;2022-10-17T14:11:24;4.37;;;3.97;;
462;SDS011;218;51.902;9.542;2022-10-17T14:13:55;6.17;;;3.97;;
462;SDS011;218;51.902;9.542;2022-10-17T14:16:26;4.47;;;3.90;;
462;SDS011;218;51.902;9.542;2022-10-17T14:19:00;6.93;;;3.93;;
462;SDS011;218;51.902;9.542;2022-10-17T14:21:28;4.87;;;4.47;;
462;SDS011;218;51.902;9.542;2022-10-17T14:24:11;6.43;;;4.50;;
462;SDS011;218;51.902;9.542;2022-10-17T14:26:46;6.87;;;4.23;;
462;SDS011;218;51.902;9.542;2022-10-17T14:29:20;4.43;;;4.00;;
462;SDS011;218;51.902;9.542;2022-10-17T14:31:55;4.50;;;4.10;;
462;SDS011;218;51.902;9.542;2022-10-17T14:34:28;12.00;;;4.90;;
462;SDS011;218;51.902;9.542;2022-10-17T14:36:57;4.07;;;3.67;;
462;SDS011;218;51.902;9.542;2022-10-17T14:39:26;8.30;;;4.80;;
462;SDS011;218;51.902;9.542;2022-10-17T14:41:54;5.20;;;4.70;;
462;SDS011;218;51.902;9.542;2022-10-17T14:44:23;10.63;;;6.23;;
462;SDS011;218;51.902;9.542;2022-10-17T14:46:57;4.70;;;4.30;;
462;SDS011;218;51.902;9.542;2022-10-17T14:49:32;6.63;;;5.40;;
462;SDS011;218;51.902;9.542;2022-10-17T14:54:56;8.50;;;6.50;;
462;SDS011;218;51.902;9.542;2022-10-17T14:57:26;6.90;;;5.47;;
462;SDS011;218;51.902;9.542;2022-10-17T15:00:08;9.90;;;5.70;;
462;SDS011;218;51.902;9.542;2022-10-17T15:02:41;6.40;;;5.17;;
462;SDS011;218;51.902;9.542;2022-10-17T15:05:10;5.23;;;4.73;;
462;SDS011;218;51.902;9.542;2022-10-17T15:07:38;5.37;;;4.80;;
462;SDS011;218;51.902;9.542;2022-10-17T15:10:15;5.03;;;4.60;;
462;SDS011;218;51.902;9.542;2022-10-17T15:12:50;5.13;;;4.73;;
462;SDS011;218;51.902;9.542;2022-10-17T15:15:17;4.97;;;4.47;;
462;SDS011;218;51.902;9.542;2022-10-17T15:17:46;4.70;;;4.17;;
462;SDS011;218;51.902;9.542;2022-10-17T15:20:15;4.97;;;4.57;;
462;SDS011;218;51.902;9.542;2022-10-17T15:22:44;5.93;;;4.37;;
462;SDS011;218;51.902;9.542;2022-10-17T15:25:12;5.17;;;4.57;;
462;SDS011;218;51.902;9.542;2022-10-17T15:27:39;4.40;;;4.00;;
462;SDS011;218;51.902;9.542;2022-10-17T15:30:10;4.97;;;4.57;;
462;SDS011;218;51.902;9.542;2022-10-17T15:32:44;5.17;;;4.77;;
462;SDS011;218;51.902;9.542;2022-10-17T15:35:13;5.00;;;4.60;;
462;SDS011;218;51.902;9.542;2022-10-17T15:37:41;8.83;;;5.80;;
462;SDS011;218;51.902;9.542;2022-10-17T15:42:40;6.23;;;5.63;;
462;SDS011;218;51.902;9.542;2022-10-17T15:45:08;5.37;;;4.87;;
462;SDS011;218;51.902;9.542;2022-10-17T15:47:36;5.07;;;4.67;;
462;SDS011;218;51.902;9.542;2022-10-17T15:50:04;6.00;;;4.57;;
462;SDS011;218;51.902;9.542;2022-10-17T15:52:34;5.23;;;4.83;;
462;SDS011;218;51.902;9.542;2022-10-17T15:55:01;6.00;;;5.50;;
462;SDS011;218;51.902;9.542;2022-10-17T15:57:29;4.80;;;4.30;;
462;SDS011;218;51.902;9.542;2022-10-17T15:59:59;4.93;;;4.43;;
462;SDS011;218;51.902;9.542;2022-10-17T16:02:26;5.93;;;4.90;;
462;SDS011;218;51.902;9.542;2022-10-17T16:04:53;4.40;;;4.00;;
462;SDS011;218;51.902;9.542;2022-10-17T16:07:20;5.13;;;4.43;;
462;SDS011;218;51.902;9.542;2022-10-17T16:09:48;5.33;;;4.47;;
462;SDS011;218;51.902;9.542;2022-10-17T16:12:16;4.17;;;3.80;;
462;SDS011;218;51.902;9.542;2022-10-17T16:14:47;4.73;;;4.33;;
462;SDS011;218;51.902;9.542;2022-10-17T16:17:14;4.33;;;4.03;;
462;SDS011;218;51.902;9.542;2022-10-17T16:19:41;4.63;;;4.23;;
462;SDS011;218;51.902;9.542;2022-10-17T16:22:10;5.07;;;4.60;;
462;SDS011;218;51.902;9.542;2022-10-17T16:24:45;5.47;;;4.67;;
462;SDS011;218;51.902;9.542;2022-10-17T16:27:13;5.40;;;4.40;;
462;SDS011;218;51.902;9.542;2022-10-17T16:29:40;5.57;;;4.60;;
462;SDS011;218;51.902;9.542;2022-10-17T16:32:07;5.97;;;4.70;;
462;SDS011;218;51.902;9.542;2022-10-17T16:34:34;4.57;;;4.17;;